Athens, Alabama
Current Conditions -  °F | °C
As of 12:53 AM on Sunday 21 Dec 2014 (Local Time) from KDCU Reporting Station
Clear Clear  
Wind Chill: 35°   Ceiling: Unl
Heat Index: 35°   Visibility: 10mi
Dew Point: 28°   Wind: 3mph
Humidity: 76%   Direction: 30°NNE
Pressure: 30.23"   Gusts: NA
Location:  34.8°N, 86.97°W
Report Text: KDCU 210653Z AUTO 03003KT 10SM CLR 02/M02 A3023 RMK AO2 SLP237 T00171022
Loading
Personal Weather Stations






























Interactive Weather Map New forecast layout! Learn more

10-Day Weather Forecast

Advertisements
Track Severe Weather on mobile